createdAt,value
2018-05-16T00:02:32.116Z,11.57
2018-05-16T00:07:25.810Z,9.80
2018-05-16T00:12:19.576Z,10.37
2018-05-16T00:17:13.378Z,10.33
2018-05-16T00:22:07.787Z,9.80
2018-05-16T00:27:02.177Z,8.77
2018-05-16T00:31:55.840Z,10.03
2018-05-16T00:36:49.837Z,8.67
2018-05-16T00:41:43.589Z,11.43
2018-05-16T00:46:37.162Z,9.67
2018-05-16T00:51:32.723Z,11.77
2018-05-16T01:05:34.474Z,11.00
2018-05-16T01:10:28.129Z,11.03
2018-05-16T01:24:29.595Z,11.70
2018-05-16T01:38:32.102Z,11.23
2018-05-16T01:43:25.689Z,9.63
2018-05-16T01:48:19.244Z,8.43
2018-05-16T01:53:13.170Z,8.40
2018-05-16T01:58:06.901Z,9.13
2018-05-16T02:03:00.524Z,9.53
2018-05-16T02:07:53.981Z,9.70
2018-05-16T02:12:47.625Z,10.87
2018-05-16T02:17:41.124Z,10.97
2018-05-16T02:22:34.767Z,11.83
2018-05-16T02:27:28.816Z,13.53
2018-05-16T02:32:23.090Z,10.47
2018-05-16T02:37:16.686Z,13.00
2018-05-16T02:42:10.159Z,11.30
2018-05-16T02:47:03.669Z,12.80
2018-05-16T02:51:57.255Z,8.30
2018-05-16T02:56:50.862Z,9.30
2018-05-16T03:01:44.395Z,8.33
2018-05-16T03:06:37.926Z,11.57
2018-05-16T03:11:31.435Z,12.30
2018-05-16T03:16:24.959Z,12.53
2018-05-16T03:21:18.518Z,12.27
2018-05-16T03:26:12.186Z,11.30
2018-05-16T03:31:05.706Z,11.53
2018-05-16T03:45:07.915Z,6.00
2018-05-16T03:50:01.540Z,6.40
2018-05-16T03:54:55.016Z,6.57
2018-05-16T04:00:06.141Z,6.43
2018-05-16T04:04:59.799Z,5.63
2018-05-16T04:09:53.346Z,5.90
2018-05-16T04:14:47.083Z,5.17
2018-05-16T04:19:40.588Z,6.30
2018-05-16T04:24:34.151Z,6.97
2018-05-16T04:29:28.955Z,6.10
2018-05-16T04:34:23.236Z,6.23
2018-05-16T04:39:16.759Z,6.93
2018-05-16T04:44:10.275Z,8.23
2018-05-16T04:49:03.868Z,8.73
2018-05-16T04:53:57.417Z,8.50
2018-05-16T04:58:51.724Z,7.00
2018-05-16T05:03:46.083Z,7.03
2018-05-16T05:08:39.576Z,5.60
2018-05-16T05:13:33.423Z,6.27
2018-05-16T05:18:26.982Z,6.37
2018-05-16T05:23:20.455Z,7.03
2018-05-16T05:28:14.015Z,7.30
2018-05-16T05:33:07.639Z,6.87
2018-05-16T05:38:01.234Z,6.07
2018-05-16T05:42:55.623Z,6.23
2018-05-16T05:47:50.173Z,7.60
2018-05-16T05:52:43.884Z,7.37
2018-05-16T05:57:37.439Z,7.47
2018-05-16T06:02:31.245Z,10.07
2018-05-16T06:07:25.956Z,8.20
2018-05-16T06:12:19.704Z,6.97
2018-05-16T06:17:17.653Z,6.33
2018-05-16T06:22:11.153Z,7.10
2018-05-16T06:27:04.801Z,7.67
2018-05-16T06:31:58.228Z,8.50
2018-05-16T06:36:52.726Z,9.43
2018-05-16T06:41:46.995Z,10.37
2018-05-16T06:46:40.464Z,11.40
2018-05-16T06:51:35.500Z,11.87
2018-05-16T06:56:29.048Z,13.60
2018-05-16T07:01:23.334Z,13.27
2018-05-16T07:06:16.839Z,16.07
2018-05-16T07:11:10.368Z,14.83
2018-05-16T07:16:04.667Z,15.73
2018-05-16T07:20:58.339Z,15.57
2018-05-16T07:25:52.695Z,16.10
2018-05-16T07:30:46.910Z,15.07
2018-05-16T07:35:40.423Z,15.53
2018-05-16T07:40:33.986Z,15.37
2018-05-16T07:45:28.076Z,14.50
2018-05-16T07:50:23.351Z,14.93
2018-05-16T07:55:20.728Z,14.93
2018-05-16T08:00:28.046Z,14.10
2018-05-16T08:10:53.482Z,14.23
2018-05-16T08:15:48.097Z,14.17
2018-05-16T08:20:43.369Z,12.90
2018-05-16T08:31:08.458Z,12.83
2018-05-16T08:36:03.017Z,11.83
2018-05-16T08:40:57.183Z,12.27
2018-05-16T08:45:51.351Z,13.23
2018-05-16T08:50:46.928Z,12.83
2018-05-16T08:55:40.626Z,13.23
2018-05-16T09:00:35.412Z,11.87
2018-05-16T09:05:29.014Z,13.20
2018-05-16T09:10:33.414Z,11.47
2018-05-16T09:15:30.976Z,10.83
2018-05-16T09:20:28.193Z,10.60
2018-05-16T09:30:52.891Z,9.90
2018-05-16T09:35:46.907Z,6.50
2018-05-16T09:40:41.826Z,5.77
2018-05-16T09:45:37.247Z,4.20
2018-05-16T09:56:03.212Z,4.63
2018-05-16T10:00:56.916Z,5.43
2018-05-16T10:11:21.152Z,4.93
2018-05-16T10:16:15.926Z,6.27
2018-05-16T10:26:39.598Z,4.50
2018-05-16T10:31:34.799Z,4.53
2018-05-16T10:36:31.243Z,4.90
2018-05-16T10:41:25.881Z,5.43
2018-05-16T10:46:20.602Z,5.87
2018-05-16T10:51:14.591Z,5.00
2018-05-16T10:56:21.889Z,5.07
2018-05-16T11:06:48.664Z,3.97
2018-05-16T11:11:43.079Z,4.00
2018-05-16T11:16:39.030Z,5.27
2018-05-16T11:21:33.537Z,6.83
2018-05-16T11:26:31.566Z,6.83
2018-05-16T11:31:27.335Z,7.23
2018-05-16T11:41:24.117Z,7.80
2018-05-16T11:46:19.566Z,6.60
2018-05-16T11:56:17.551Z,7.90
2018-05-16T12:01:13.213Z,6.53
2018-05-16T12:06:11.184Z,9.43
2018-05-16T12:16:41.823Z,4.77
2018-05-16T12:21:41.508Z,4.40
2018-05-16T12:26:46.131Z,4.40
2018-05-16T12:31:46.354Z,2.10
2018-05-16T12:36:42.395Z,2.17
2018-05-16T12:41:42.787Z,3.23
2018-05-16T12:52:10.512Z,2.70
2018-05-16T12:57:06.075Z,2.67
2018-05-16T13:01:59.949Z,4.20
2018-05-16T13:06:56.431Z,5.63
2018-05-16T13:11:54.656Z,4.87
2018-05-16T13:16:53.917Z,4.17
2018-05-16T13:21:52.869Z,5.20
2018-05-16T13:27:00.876Z,5.97
2018-05-16T13:37:12.245Z,6.53
2018-05-16T13:42:13.283Z,8.07
2018-05-16T13:47:14.980Z,7.57
2018-05-16T13:52:13.605Z,8.13
2018-05-16T13:57:15.285Z,7.37
2018-05-16T14:02:13.730Z,8.17
2018-05-16T14:07:14.780Z,8.20
2018-05-16T14:12:13.824Z,8.10
2018-05-16T14:17:18.613Z,6.73
2018-05-16T14:27:46.577Z,6.30
2018-05-16T14:32:49.991Z,6.30
2018-05-16T14:37:45.412Z,6.73
2018-05-16T14:42:40.891Z,5.57
2018-05-16T14:47:34.705Z,6.53
2018-05-16T14:52:30.120Z,5.60
2018-05-16T14:57:25.161Z,5.10
2018-05-16T15:02:19.275Z,4.07
2018-05-16T15:07:12.902Z,3.00
2018-05-16T15:12:06.819Z,3.40
2018-05-16T15:17:04.914Z,3.60
2018-05-16T15:21:59.813Z,3.90
2018-05-16T15:26:54.364Z,4.10
2018-05-16T15:31:48.210Z,4.43
2018-05-16T15:41:41.092Z,4.53
2018-05-16T15:46:36.330Z,4.67
2018-05-16T15:51:30.854Z,4.63
2018-05-16T15:56:24.565Z,4.87
2018-05-16T16:01:18.220Z,5.23
2018-05-16T16:06:12.654Z,5.60
2018-05-16T16:11:08.170Z,6.60
2018-05-16T16:16:02.151Z,6.20
2018-05-16T16:20:56.286Z,6.17
2018-05-16T16:25:51.856Z,6.60
2018-05-16T16:30:45.640Z,6.27
2018-05-16T16:41:10.925Z,7.70
2018-05-16T16:46:06.584Z,7.33
2018-05-16T16:51:00.065Z,6.90
2018-05-16T16:55:53.535Z,7.97
2018-05-16T17:00:47.082Z,6.80
2018-05-16T17:05:40.610Z,6.73
2018-05-16T17:10:34.294Z,7.03
2018-05-16T17:15:27.788Z,7.40
2018-05-16T17:20:21.913Z,6.90
2018-05-16T17:25:16.242Z,6.77
2018-05-16T17:30:09.762Z,7.53
2018-05-16T17:35:03.943Z,7.40
2018-05-16T17:39:58.155Z,8.17
2018-05-16T17:44:51.873Z,7.07
2018-05-16T17:49:46.203Z,8.60
2018-05-16T17:54:39.891Z,8.23
2018-05-16T17:59:33.372Z,8.07
2018-05-16T18:04:26.847Z,8.07
2018-05-16T18:09:21.227Z,7.80
2018-05-16T18:20:15.662Z,7.97
2018-05-16T18:25:10.067Z,7.83
2018-05-16T18:30:04.965Z,8.90
2018-05-16T18:34:59.808Z,8.77
2018-05-16T18:39:54.334Z,9.43
2018-05-16T18:44:48.130Z,9.67
2018-05-16T18:49:42.982Z,9.50
2018-05-16T18:54:37.482Z,10.50
2018-05-16T18:59:31.258Z,10.37
2018-05-16T19:04:25.712Z,9.77
2018-05-16T19:09:19.451Z,9.87
2018-05-16T19:14:13.205Z,10.77
2018-05-16T19:28:17.369Z,11.80
2018-05-16T19:33:11.762Z,11.63
2018-05-16T19:38:05.462Z,11.97
2018-05-16T19:42:59.190Z,12.97
2018-05-16T19:47:52.976Z,14.50
2018-05-16T19:52:47.981Z,13.93
2018-05-16T19:57:43.544Z,14.07
2018-05-16T20:02:38.052Z,17.50
2018-05-16T20:07:31.751Z,16.83
2018-05-16T20:12:26.446Z,17.60
2018-05-16T20:17:20.180Z,14.90
2018-05-16T20:22:15.143Z,15.80
2018-05-16T20:27:08.872Z,14.57
2018-05-16T20:32:03.519Z,19.87
2018-05-16T20:36:57.749Z,19.70
2018-05-16T20:41:52.353Z,20.63
2018-05-16T20:46:46.149Z,14.77
2018-05-16T20:51:39.847Z,17.93
2018-05-16T20:56:33.563Z,17.60
2018-05-16T21:01:27.226Z,17.70
2018-05-16T21:06:23.061Z,17.20
2018-05-16T21:11:17.421Z,17.80
2018-05-16T21:16:11.196Z,19.17
2018-05-16T21:21:05.687Z,19.87
2018-05-16T21:25:59.422Z,16.30
2018-05-16T21:30:55.916Z,18.43
2018-05-16T21:35:49.660Z,18.80
2018-05-16T21:40:43.595Z,17.20
2018-05-16T21:45:38.239Z,16.37
2018-05-16T21:50:32.099Z,15.67
2018-05-16T21:55:25.881Z,15.40
2018-05-16T22:00:20.926Z,16.57
2018-05-16T22:05:15.106Z,16.80
2018-05-16T22:10:08.910Z,22.30
2018-05-16T22:15:03.484Z,20.20
2018-05-16T22:19:57.186Z,17.80
2018-05-16T22:24:51.592Z,16.80
2018-05-16T22:29:45.403Z,17.77
2018-05-16T22:34:45.377Z,16.90
2018-05-16T22:39:44.753Z,16.00
2018-05-16T22:44:39.545Z,14.70
2018-05-16T22:49:33.623Z,13.87
2018-05-16T22:54:28.928Z,13.53
2018-05-16T22:59:22.922Z,14.43
2018-05-16T23:04:17.572Z,12.50
2018-05-16T23:09:11.943Z,13.50
2018-05-16T23:14:05.795Z,15.10
2018-05-16T23:18:59.618Z,13.30
2018-05-16T23:23:57.766Z,16.30
2018-05-16T23:28:52.478Z,13.90
2018-05-16T23:33:46.435Z,13.30
2018-05-16T23:38:41.066Z,14.27
2018-05-16T23:43:34.895Z,12.10
2018-05-16T23:48:28.664Z,13.53
2018-05-16T23:53:22.647Z,18.00
2018-05-16T23:58:17.237Z,16.77
